CheckWX is a tool to help pilots better visualize weather data.  It is not intended as a substitute for an official pre-flight weather briefing.

22:16:52 UTC

KJKL TAF
Julian Carroll Airport
Jackson, Kentucky, USA
KJKL 042324Z 0500/0524 VRB03KT P6SM FEW250 FM051200 00000KT P6SM BKN070 FM052100 VRB03KT P6SM SCT045

Apr-5@
00:00 UTC

Apr-5 @ 00:00 UTC

Apr-5@
12:00 UTC

Apr-5 @ 12:00 UTC

TAF KJKL 042324Z 0500/0524 VRB03KT P6SM FEW250

Expired

Wind
  • Variable at 3 KTS
Cloud Levels
  • Few at 25,000' AGL

Apr-5@
12:00 UTC

Apr-5 @ 12:00 UTC

Apr-5@
21:00 UTC

Apr-5 @ 21:00 UTC

FM051200 00000KT P6SM BKN070

Expired

Cloud Levels
  • Broken at 7,000' AGL

Apr-5@
21:00 UTC

Apr-5 @ 21:00 UTC

Apr-6@
00:00 UTC

Apr-6 @ 00:00 UTC

FM052100 VRB03KT P6SM SCT045

From

From Standard forecast or significant change

Wind
  • Variable at 3 KTS
Cloud Levels
  • Scattered at 4,500' AGL